Time;durP1;ratioP1;P1;durP2;ratioP2;P2;SDS_P1;SDS_P2;PMS_P1;PMS_P2;Temp;Humidity;BMP_temperature;BMP_pressure;BME280_temperature;BME280_humidity;BME280_pressure;Samples;Min_cycle;Max_cycle;Signal;HPM_P1;HPM_P2
2022/05/10 00:02:14;;;;;;;27.17;13.18;;;;;;;14.72;66.21;101866.56;5054761;28;20138;-83
2022/05/10 00:04:43;;;;;;;22.63;13.13;;;;;;;14.69;66.12;101866.97;5054236;28;20484;-83
2022/05/10 00:07:08;;;;;;;22.05;12.93;;;;;;;14.62;66.51;101867.03;5055254;28;20029;-84
2022/05/10 00:09:34;;;;;;;26.87;13.33;;;;;;;14.63;67.64;101867.88;5054302;28;20033;-83
2022/05/10 00:12:00;;;;;;;21.33;13.07;;;;;;;14.55;67.47;101864.28;5037318;28;20029;-83
2022/05/10 00:14:27;;;;;;;20.70;13.15;;;;;;;14.53;68.01;101862.84;5054779;28;20025;-84
2022/05/10 00:16:54;;;;;;;22.13;13.67;;;;;;;14.50;69.39;101864.13;5036771;28;20507;-83
2022/05/10 00:19:22;;;;;;;23.13;13.85;;;;;;;14.42;67.98;101856.16;5054724;28;20041;-83
2022/05/10 00:21:49;;;;;;;20.55;13.52;;;;;;;14.43;67.98;101860.56;5054983;28;20060;-83
2022/05/10 00:24:14;;;;;;;25.13;13.73;;;;;;;14.42;68.92;101852.59;5036800;28;20060;-83
2022/05/10 00:26:40;;;;;;;26.83;14.50;;;;;;;14.40;68.37;101847.34;5053366;28;20267;-83
2022/05/10 00:29:06;;;;;;;26.55;14.70;;;;;;;14.35;68.54;101847.16;5054886;28;20451;-83
2022/05/10 00:31:32;;;;;;;25.73;14.60;;;;;;;14.35;69.42;101845.28;5053325;28;20362;-83
2022/05/10 00:33:59;;;;;;;23.38;14.20;;;;;;;14.31;68.48;101841.31;5054778;28;20035;-83
2022/05/10 00:36:25;;;;;;;23.02;14.43;;;;;;;14.29;68.75;101845.28;5055199;28;20082;-83
2022/05/10 00:38:51;;;;;;;22.50;14.80;;;;;;;14.24;69.00;101839.66;5053379;28;20119;-83
2022/05/10 00:41:31;;;;;;;26.47;14.53;;;;;;;14.20;68.18;101841.97;5037611;28;20128;-85
2022/05/10 00:44:24;;;;;;;28.50;16.23;;;;;;;14.13;67.99;101830.22;5053254;28;20146;-83
2022/05/10 00:47:13;;;;;;;24.45;15.45;;;;;;;14.08;68.15;101828.16;5046935;28;20037;-83
2022/05/10 00:49:48;;;;;;;26.83;16.00;;;;;;;14.04;68.83;101832.38;5024907;28;20036;-83
2022/05/10 00:52:47;;;;;;;29.35;16.17;;;;;;;14.05;68.14;101834.03;5054700;28;20033;-82
2022/05/10 00:55:34;;;;;;;26.45;15.70;;;;;;;14.02;69.56;101835.34;5054355;28;20025;-83
2022/05/10 00:58:32;;;;;;;25.40;14.77;;;;;;;14.06;68.84;101824.81;5053020;28;20021;-83
2022/05/10 01:01:00;;;;;;;25.75;16.15;;;;;;;14.06;69.63;101823.97;5052760;28;20037;-83
2022/05/10 01:03:40;;;;;;;25.73;15.57;;;;;;;14.04;69.34;101822.31;5054146;28;20031;-83
2022/05/10 01:06:24;;;;;;;23.90;15.43;;;;;;;14.01;69.20;101819.16;5053227;28;20031;-83
2022/05/10 01:09:26;;;;;;;28.60;15.55;;;;;;;14.00;70.02;101818.31;5053750;28;20025;-82
2022/05/10 01:12:00;;;;;;;23.50;15.88;;;;;;;14.01;71.39;101810.97;5053335;28;20028;-83
2022/05/10 01:14:50;;;;;;;29.95;16.33;;;;;;;13.99;70.59;101813.06;5054284;28;20036;-84
2022/05/10 01:17:16;;;;;;;29.43;16.73;;;;;;;13.92;70.05;101813.13;5052526;28;20060;-82
2022/05/10 01:19:44;;;;;;;26.80;16.23;;;;;;;13.91;70.72;101816.88;5052705;28;20033;-83
2022/05/10 01:22:32;;;;;;;24.45;16.17;;;;;;;13.91;69.54;101813.31;5052365;28;20025;-83
2022/05/10 01:25:17;;;;;;;23.55;15.45;;;;;;;13.92;70.31;101809.53;5053877;28;20029;-83
2022/05/10 01:28:03;;;;;;;28.60;16.75;;;;;;;13.89;72.58;101804.50;5053604;28;20067;-83
2022/05/10 01:30:30;;;;;;;23.73;16.23;;;;;;;13.85;72.33;101799.47;5052824;28;20040;-83
2022/05/10 01:36:03;;;;;;;29.08;15.45;;;;;;;13.85;71.24;101796.75;5053792;28;20039;-83
2022/05/10 01:38:47;;;;;;;27.90;16.55;;;;;;;13.81;70.47;101795.50;5052999;28;20032;-83
2022/05/10 01:41:43;;;;;;;27.30;16.05;;;;;;;13.80;70.76;101787.53;5053656;28;20552;-83
2022/05/10 01:44:40;;;;;;;24.07;16.10;;;;;;;13.72;71.83;101787.78;5052281;28;20043;-83
2022/05/10 01:47:14;;;;;;;28.55;16.23;;;;;;;13.65;71.96;101787.78;5032792;28;20068;-82
2022/05/10 01:49:54;;;;;;;24.10;16.40;;;;;;;13.60;71.34;101782.97;5052938;28;20126;-82
2022/05/10 01:52:27;;;;;;;26.63;17.27;;;;;;;13.54;72.64;101775.63;5053616;28;20029;-83
2022/05/10 01:55:11;;;;;;;24.23;15.70;;;;;;;13.54;71.41;101774.78;5052274;28;20032;-83
2022/05/10 01:57:40;;;;;;;29.43;16.80;;;;;;;13.49;72.87;101765.38;5052417;28;20377;-83
2022/05/10 02:00:14;;;;;;;25.23;16.45;;;;;;;13.46;72.08;101776.72;5020085;28;20033;-83
2022/05/10 02:02:48;;;;;;;27.92;16.08;;;;;;;13.44;72.54;101767.06;5052578;28;20408;-83
2022/05/10 02:05:19;;;;;;;31.60;17.02;;;;;;;13.45;72.74;101769.56;5053516;28;20044;-83
2022/05/10 02:07:50;;;;;;;31.17;17.17;;;;;;;13.45;73.11;101764.13;5053529;28;20520;-83
2022/05/10 02:10:25;;;;;;;29.10;15.70;;;;;;;13.51;72.88;101760.53;5052529;28;20037;-83
2022/05/10 02:13:05;;;;;;;32.20;16.52;;;;;;;13.53;73.03;101768.50;5053459;28;20028;-83
2022/05/10 02:15:44;;;;;;;27.83;16.10;;;;;;;13.57;73.03;101760.72;5052326;28;20186;-83
2022/05/10 02:18:17;;;;;;;33.13;16.88;;;;;;;13.59;73.99;101756.75;5053539;28;20045;-83
2022/05/10 02:21:00;;;;;;;35.17;17.58;;;;;;;13.61;73.15;101753.78;5051960;28;20035;-83
2022/05/10 02:23:36;;;;;;;26.53;16.13;;;;;;;13.67;74.56;101759.25;5052764;28;20033;-83
2022/05/10 02:26:10;;;;;;;29.92;17.70;;;;;;;13.72;75.25;101755.06;5053611;28;20025;-82
2022/05/10 02:28:50;;;;;;;39.03;17.90;;;;;;;13.69;72.81;101748.13;5052230;28;20040;-83
2022/05/10 02:31:27;;;;;;;33.28;16.17;;;;;;;13.68;72.41;101747.28;5053840;28;20366;-82
2022/05/10 02:33:55;;;;;;;30.75;16.80;;;;;;;13.71;72.53;101737.00;5052810;28;20052;-83
2022/05/10 02:36:20;;;;;;;29.07;16.37;;;;;;;13.71;72.44;101740.56;5051720;28;20041;-83
2022/05/10 02:38:47;;;;;;;30.40;17.03;;;;;;;13.73;72.59;101734.88;5036221;28;20393;-82
2022/05/10 02:41:19;;;;;;;30.13;17.07;;;;;;;13.69;72.55;101729.03;5055772;28;20268;-83
2022/05/10 02:43:56;;;;;;;31.63;16.60;;;;;;;13.71;72.02;101728.81;5057076;28;20396;-83
2022/05/10 02:46:22;;;;;;;28.70;16.45;;;;;;;13.66;72.27;101726.75;5056965;28;20108;-82
2022/05/10 02:48:49;;;;;;;32.70;16.88;;;;;;;13.68;72.71;101728.22;5039279;28;20033;-83
2022/05/10 02:51:16;;;;;;;22.98;16.23;;;;;;;13.68;72.14;101728.22;5056412;28;20479;-83
2022/05/10 02:53:41;;;;;;;37.23;17.23;;;;;;;13.66;72.22;101724.00;5055806;28;20543;-82
2022/05/10 02:56:13;;;;;;;26.58;16.30;;;;;;;13.64;72.38;101715.19;5038756;28;20036;-82
2022/05/10 02:58:52;;;;;;;29.55;16.10;;;;;;;13.65;71.87;101720.44;5056371;28;20542;-83
2022/05/10 03:01:33;;;;;;;30.87;16.07;;;;;;;13.68;71.99;101714.56;5055904;28;20040;-83
2022/05/10 03:03:59;;;;;;;26.17;16.30;;;;;;;13.68;72.27;101711.00;5055214;28;20029;-82
2022/05/10 03:06:27;;;;;;;27.50;16.13;;;;;;;13.65;72.35;101705.97;5055126;28;20029;-83
2022/05/10 03:08:53;;;;;;;25.88;14.75;;;;;;;13.66;72.50;101710.38;5038477;28;20449;-82
2022/05/10 03:11:19;;;;;;;26.77;16.23;;;;;;;13.65;72.25;101701.34;5038511;28;20071;-83
2022/05/10 03:13:47;;;;;;;28.85;15.82;;;;;;;13.73;73.03;101699.44;5038625;28;20060;-82
2022/05/10 03:16:13;;;;;;;26.92;15.68;;;;;;;13.75;72.22;101700.91;5055735;28;20024;-82
2022/05/10 03:18:39;;;;;;;27.15;16.50;;;;;;;13.74;71.98;101701.13;5056113;28;20057;-83
2022/05/10 03:21:04;;;;;;;33.33;15.57;;;;;;;13.76;71.69;101699.84;5038576;28;20051;-83
2022/05/10 03:23:30;;;;;;;27.27;15.80;;;;;;;13.77;71.57;101696.06;5038213;28;20027;-83
2022/05/10 03:25:56;;;;;;;27.00;15.45;;;;;;;13.82;71.52;101690.81;5055782;28;20453;-83
2022/05/10 03:28:23;;;;;;;27.67;15.70;;;;;;;13.87;72.12;101687.41;5055018;28;20032;-83
2022/05/10 03:30:49;;;;;;;27.67;15.43;;;;;;;13.85;71.63;101692.28;5038238;28;20439;-83
2022/05/10 03:33:14;;;;;;;27.38;15.68;;;;;;;13.84;71.87;101687.84;5054676;28;20025;-82
2022/05/10 03:35:40;;;;;;;26.92;16.08;;;;;;;13.84;71.20;101680.50;5054886;28;20116;-83
2022/05/10 03:38:06;;;;;;;26.37;15.97;;;;;;;13.88;71.64;101683.66;5054448;28;20385;-83
2022/05/10 03:40:31;;;;;;;29.13;15.40;;;;;;;13.90;71.13;101675.25;5055545;28;20103;-83
2022/05/10 03:42:56;;;;;;;26.97;16.07;;;;;;;13.89;71.33;101677.13;5054384;28;20036;-83
2022/05/10 03:45:23;;;;;;;27.17;15.40;;;;;;;13.91;71.55;101679.66;5037866;28;20037;-83
2022/05/10 03:47:55;;;;;;;25.02;14.77;;;;;;;13.94;71.23;101671.88;5054438;28;20028;-83
2022/05/10 03:50:22;;;;;;;26.75;14.90;;;;;;;13.93;71.03;101666.63;5054307;28;20079;-82
2022/05/10 03:52:48;;;;;;;25.23;15.87;;;;;;;13.94;71.14;101671.88;5054285;28;20040;-83
2022/05/10 03:55:17;;;;;;;32.03;15.05;;;;;;;13.96;70.71;101669.75;5055580;28;20404;-83
2022/05/10 03:57:44;;;;;;;27.50;16.20;;;;;;;13.93;70.46;101658.44;5054156;28;20085;-83
2022/05/10 04:00:12;;;;;;;26.88;15.15;;;;;;;13.96;71.19;101672.47;5038119;28;20483;-83
2022/05/10 04:02:38;;;;;;;27.33;15.60;;;;;;;13.94;70.64;101658.22;5054921;28;20103;-83
2022/05/10 04:05:05;;;;;;;28.48;15.32;;;;;;;13.95;70.76;101657.19;5055314;28;20059;-83
2022/05/10 04:07:30;;;;;;;26.70;15.80;;;;;;;13.97;70.79;101657.78;5054161;28;20039;-83
2022/05/10 04:09:56;;;;;;;31.90;15.97;;;;;;;13.97;70.68;101659.69;5054597;28;20116;-83
2022/05/10 04:12:21;;;;;;;28.90;16.43;;;;;;;13.97;70.60;101657.78;5054169;28;20461;-83
2022/05/10 04:14:47;;;;;;;27.87;15.57;;;;;;;14.01;70.39;101655.44;5037198;28;20032;-83
2022/05/10 04:17:12;;;;;;;26.37;15.27;;;;;;;14.06;70.33;101657.53;5036926;28;20820;-83
2022/05/10 04:19:37;;;;;;;30.80;16.80;;;;;;;14.11;70.10;101660.44;5020722;28;20026;-83
2022/05/10 04:22:03;;;;;;;29.10;16.33;;;;;;;14.17;69.98;101663.13;5055041;28;20032;-83
2022/05/10 04:24:29;;;;;;;26.58;16.23;;;;;;;14.17;69.75;101663.13;5054590;28;20504;-83
2022/05/10 04:26:54;;;;;;;27.53;16.10;;;;;;;14.23;69.95;101657.84;5020493;28;20033;-83
2022/05/10 04:29:23;;;;;;;28.63;15.80;;;;;;;14.27;69.84;101662.63;5020792;28;20032;-83
2022/05/10 04:31:48;;;;;;;26.80;15.43;;;;;;;14.29;69.37;101660.53;5036990;28;20037;-83
2022/05/10 04:34:14;;;;;;;30.92;15.98;;;;;;;14.36;69.05;101655.00;5053389;28;20074;-83
2022/05/10 04:36:39;;;;;;;31.60;16.33;;;;;;;14.43;68.84;101649.53;5036953;28;20045;-83
2022/05/10 04:39:05;;;;;;;28.63;15.93;;;;;;;14.47;68.61;101650.75;5036859;28;20040;-83
2022/05/10 04:41:35;;;;;;;28.80;15.25;;;;;;;14.54;68.23;101655.09;5053175;28;20075;-83
2022/05/10 04:44:09;;;;;;;25.60;14.38;;;;;;;14.63;67.83;101649.38;5053246;28;20032;-83
2022/05/10 04:46:37;;;;;;;29.23;15.00;;;;;;;14.67;67.57;101647.88;5054711;28;20025;-83
2022/05/10 04:49:04;;;;;;;29.00;15.18;;;;;;;14.75;67.01;101642.16;5053310;28;20037;-83
2022/05/10 04:51:30;;;;;;;24.37;14.17;;;;;;;14.86;67.10;101648.75;5054217;28;20025;-83
2022/05/10 04:53:56;;;;;;;25.15;14.95;;;;;;;14.94;66.78;101643.03;5054363;28;20043;-83
2022/05/10 04:56:22;;;;;;;25.60;14.35;;;;;;;15.02;66.38;101647.34;5053276;28;20078;-83
2022/05/10 04:58:48;;;;;;;26.57;15.17;;;;;;;15.09;66.00;101638.00;5036491;28;20033;-83
2022/05/10 05:01:17;;;;;;;27.38;14.32;;;;;;;15.17;65.58;101644.25;5020581;28;20039;-83
2022/05/10 05:03:45;;;;;;;24.05;14.70;;;;;;;15.27;66.27;101641.81;5052581;28;20040;-82
2022/05/10 05:06:10;;;;;;;26.97;14.47;;;;;;;15.36;65.61;101631.44;5052955;28;20053;-82
2022/05/10 05:08:35;;;;;;;24.80;12.95;;;;;;;15.49;64.80;101644.13;5036290;28;20063;-82
2022/05/10 05:11:01;;;;;;;29.13;14.30;;;;;;;15.57;64.91;101639.13;5053829;28;20066;-82
2022/05/10 05:13:26;;;;;;;23.63;14.03;;;;;;;15.65;64.67;101650.84;5053975;28;20474;-83
2022/05/10 05:15:53;;;;;;;22.60;13.70;;;;;;;15.71;64.39;101649.94;5035972;28;20063;-83
2022/05/10 05:18:19;;;;;;;27.02;13.05;;;;;;;15.77;64.34;101649.00;5051998;28;20064;-82
2022/05/10 05:20:45;;;;;;;26.23;13.48;;;;;;;15.82;64.27;101648.34;5054652;28;20044;-83
2022/05/10 05:23:13;;;;;;;25.80;13.82;;;;;;;15.85;64.46;101640.50;5035742;28;20474;-83
2022/05/10 05:25:41;;;;;;;24.67;13.83;;;;;;;15.86;63.94;101650.38;5052768;28;20085;-83
2022/05/10 05:28:08;;;;;;;24.58;13.32;;;;;;;15.89;64.53;101646.38;5053796;28;20040;-83
2022/05/10 05:30:33;;;;;;;19.67;12.70;;;;;;;15.93;64.42;101645.66;5052634;28;20039;-83
2022/05/10 05:33:00;;;;;;;22.70;13.37;;;;;;;15.94;64.31;101643.75;5036085;28;20460;-83
2022/05/10 05:35:26;;;;;;;24.10;13.35;;;;;;;16.06;64.13;101650.13;5053335;28;20442;-82
2022/05/10 05:37:52;;;;;;;25.02;12.93;;;;;;;16.10;63.96;101645.81;5053426;28;20481;-82
2022/05/10 05:40:22;;;;;;;22.85;12.80;;;;;;;16.11;64.20;101649.41;5035686;28;20040;-83
2022/05/10 05:42:52;;;;;;;25.13;13.20;;;;;;;16.19;63.55;101642.78;5054458;28;20116;-84
2022/05/10 05:45:19;;;;;;;22.23;12.98;;;;;;;16.23;63.60;101646.72;5035425;28;20036;-84
2022/05/10 05:47:45;;;;;;;20.55;13.23;;;;;;;16.29;63.47;101646.59;5035749;28;20036;-83
2022/05/10 05:50:14;;;;;;;22.67;13.55;;;;;;;16.33;63.55;101641.50;5052087;28;20032;-83
2022/05/10 05:52:40;;;;;;;23.88;13.30;;;;;;;16.44;63.04;101642.59;5052105;28;20511;-83
2022/05/10 05:55:07;;;;;;;25.33;12.90;;;;;;;16.51;63.11;101640.59;5052022;28;20036;-83
2022/05/10 05:57:33;;;;;;;18.92;13.55;;;;;;;16.59;62.82;101631.19;5053052;28;20064;-83
2022/05/10 06:00:01;;;;;;;20.98;13.15;;;;;;;16.72;62.43;101627.38;5051715;28;20067;-83
2022/05/10 06:02:27;;;;;;;20.63;12.57;;;;;;;16.81;62.37;101618.53;5053566;28;20047;-83
2022/05/10 06:04:54;;;;;;;27.35;12.70;;;;;;;16.88;62.25;101615.72;5035049;28;20582;-82
2022/05/10 06:07:20;;;;;;;27.20;13.05;;;;;;;16.94;62.03;101623.00;5051248;28;20028;-83
2022/05/10 06:09:47;;;;;;;20.88;11.85;;;;;;;17.00;61.93;101630.25;5035467;28;20029;-83
2022/05/10 06:12:16;;;;;;;20.08;11.48;;;;;;;17.02;61.79;101627.28;5051730;28;20032;-82
2022/05/10 06:14:41;;;;;;;20.93;11.43;;;;;;;17.06;61.30;101633.94;5053994;28;20037;-82
2022/05/10 06:17:09;;;;;;;18.77;11.50;;;;;;;17.17;61.94;101627.63;5054761;28;20056;-82
2022/05/10 06:19:37;;;;;;;18.60;11.18;;;;;;;17.32;61.12;101640.00;5055506;28;20044;-83
2022/05/10 06:22:04;;;;;;;15.63;10.57;;;;;;;17.44;60.84;101627.09;5055146;28;20361;-83
2022/05/10 06:24:29;;;;;;;15.13;10.37;;;;;;;17.60;60.29;101628.25;5056710;28;20029;-84
2022/05/10 06:26:55;;;;;;;16.38;10.35;;;;;;;17.72;60.17;101628.19;5055197;28;20178;-83
2022/05/10 06:29:20;;;;;;;14.13;10.13;;;;;;;17.85;60.21;101627.91;5055669;28;20039;-83
2022/05/10 06:31:47;;;;;;;14.77;9.47;;;;;;;17.98;58.83;101621.34;5055017;28;20053;-83
2022/05/10 06:34:14;;;;;;;13.57;9.57;;;;;;;18.02;59.12;101622.47;5038976;28;20540;-83
2022/05/10 06:36:40;;;;;;;18.15;9.80;;;;;;;18.15;59.44;101620.53;5055381;28;20060;-83
2022/05/10 06:39:07;;;;;;;13.98;8.80;;;;;;;18.26;58.36;101616.03;5055372;28;20376;-83
2022/05/10 06:41:34;;;;;;;19.60;9.15;;;;;;;18.41;58.36;101619.88;5055168;28;20040;-83
2022/05/10 06:44:00;;;;;;;16.37;8.80;;;;;;;18.54;57.83;101617.88;5055734;28;20032;-83
2022/05/10 06:46:27;;;;;;;13.70;8.13;;;;;;;18.61;58.24;101610.28;5038818;28;20025;-83
2022/05/10 06:48:53;;;;;;;13.38;8.50;;;;;;;18.72;57.23;101612.13;5055881;28;20021;-83
2022/05/10 06:51:21;;;;;;;14.13;7.77;;;;;;;18.88;56.97;101606.88;5054821;28;20447;-83
2022/05/10 06:53:47;;;;;;;16.35;8.27;;;;;;;18.98;56.91;101608.94;5056429;28;20033;-83
2022/05/10 06:56:13;;;;;;;16.38;8.18;;;;;;;19.05;56.70;101602.16;5038682;28;20517;-83
2022/05/10 06:58:39;;;;;;;15.63;8.10;;;;;;;19.13;55.85;101602.81;5055081;28;20036;-83
2022/05/10 07:01:10;;;;;;;14.53;7.90;;;;;;;19.17;56.33;101602.03;5038825;28;20458;-83
2022/05/10 07:03:36;;;;;;;11.47;7.80;;;;;;;19.23;56.15;101601.03;5055623;28;20841;-83
2022/05/10 07:06:05;;;;;;;15.02;7.65;;;;;;;19.39;55.58;101598.47;5038430;28;20036;-83
2022/05/10 07:08:31;;;;;;;14.57;7.88;;;;;;;19.50;55.02;101597.50;5055248;28;20499;-83
2022/05/10 07:10:57;;;;;;;13.82;8.00;;;;;;;19.58;54.84;101588.78;5054995;28;20361;-83
2022/05/10 07:13:26;;;;;;;9.87;7.50;;;;;;;19.69;54.09;101589.72;5055580;28;20021;-83
2022/05/10 07:15:52;;;;;;;20.35;7.63;;;;;;;19.75;54.09;101591.47;5054817;28;20041;-83
2022/05/10 07:18:18;;;;;;;12.10;7.53;;;;;;;19.78;54.28;101598.38;5054525;28;20103;-83
2022/05/10 07:20:45;;;;;;;14.13;7.88;;;;;;;19.80;53.93;101585.22;5054458;28;20510;-83
2022/05/10 07:23:11;;;;;;;15.02;7.72;;;;;;;19.92;53.29;101590.56;5055964;28;20033;-83
2022/05/10 07:25:37;;;;;;;11.20;7.50;;;;;;;20.07;53.48;101584.38;5053067;28;20116;-83
2022/05/10 07:28:03;;;;;;;9.73;7.78;;;;;;;20.26;52.41;101587.56;5054315;28;20032;-83
2022/05/10 07:30:30;;;;;;;14.03;7.63;;;;;;;20.33;52.80;101577.16;5038523;28;20032;-83
2022/05/10 07:32:56;;;;;;;12.23;7.47;;;;;;;20.47;52.18;101588.53;5055543;28;20111;-83
2022/05/10 07:38:09;;;;;;;11.70;7.03;;;;;;;20.59;51.41;101589.19;5056073;28;20471;-83
2022/05/10 07:40:35;;;;;;;8.07;7.03;;;;;;;20.72;51.31;101576.91;5054424;28;20032;-83
2022/05/10 07:43:00;;;;;;;10.57;6.68;;;;;;;20.93;51.37;101582.53;5037686;28;20564;-83
2022/05/10 07:45:26;;;;;;;11.23;7.00;;;;;;;21.03;50.23;101574.31;5054318;28;20078;-83
2022/05/10 07:47:51;;;;;;;12.10;6.60;;;;;;;21.10;50.05;101571.31;5037648;28;20480;-83
2022/05/10 07:50:17;;;;;;;11.00;6.07;;;;;;;21.34;50.47;101568.94;5055858;28;20029;-83
2022/05/10 07:52:44;;;;;;;10.85;6.40;;;;;;;21.36;49.39;101555.66;5054301;28;20104;-83
2022/05/10 07:55:12;;;;;;;12.38;6.43;;;;;;;21.39;48.81;101577.22;5055082;28;20029;-83
2022/05/10 07:57:39;;;;;;;16.38;6.50;;;;;;;21.45;47.82;101567.88;5053966;28;20017;-83
2022/05/10 08:00:08;;;;;;;18.20;6.27;;;;;;;21.36;48.63;101572.22;5038261;28;20417;-83
2022/05/10 08:02:34;;;;;;;8.05;6.30;;;;;;;21.38;48.35;101570.06;5054063;28;20036;-83
2022/05/10 08:04:59;;;;;;;10.48;6.63;;;;;;;21.43;48.15;101575.56;5037235;28;20029;-83
2022/05/10 08:07:25;;;;;;;11.23;6.40;;;;;;;21.49;48.06;101574.47;5054147;28;20037;-83
2022/05/10 08:09:52;;;;;;;14.07;6.57;;;;;;;21.60;47.80;101569.88;5054218;28;20029;-83
2022/05/10 08:12:18;;;;;;;11.93;5.85;;;;;;;21.68;47.70;101571.25;5037678;28;20033;-83
2022/05/10 08:14:44;;;;;;;15.43;6.28;;;;;;;21.71;47.66;101576.25;5055159;28;20029;-83
2022/05/10 08:17:09;;;;;;;12.60;6.78;;;;;;;21.69;47.29;101568.22;5053187;28;20504;-83
2022/05/10 08:19:35;;;;;;;9.80;6.13;;;;;;;21.79;47.78;101566.56;5037550;28;20067;-83
2022/05/10 08:22:00;;;;;;;9.80;6.23;;;;;;;21.85;46.46;101569.09;5037193;28;20037;-83
2022/05/10 08:24:25;;;;;;;13.83;6.50;;;;;;;21.68;46.95;101565.75;5037168;28;20049;-83
2022/05/10 08:26:51;;;;;;;13.02;6.00;;;;;;;21.65;46.96;101566.28;5037294;28;20439;-83
2022/05/10 08:29:16;;;;;;;29.27;6.67;;;;;;;21.68;46.23;101563.78;5054121;28;20517;-83
2022/05/10 08:31:42;;;;;;;11.60;5.70;;;;;;;21.63;46.85;101563.81;5054172;28;20036;-83
2022/05/10 08:34:07;;;;;;;12.07;5.83;;;;;;;21.67;46.22;101551.13;5053076;28;20044;-83
2022/05/10 08:36:33;;;;;;;7.33;5.50;;;;;;;21.70;46.69;101555.25;5020097;28;20044;-83
2022/05/10 08:38:58;;;;;;;9.57;6.38;;;;;;;21.78;46.34;101551.13;5053241;28;20366;-83
2022/05/10 08:41:27;;;;;;;9.77;5.87;;;;;;;21.79;45.85;101552.75;5053097;28;20033;-83
2022/05/10 08:44:27;;;;;;;13.10;6.40;;;;;;;21.80;46.14;101540.63;5053225;28;20029;-83
2022/05/10 08:47:06;;;;;;;9.88;5.15;;;;;;;21.93;46.48;101548.38;5046154;28;20037;-83
2022/05/10 08:49:42;;;;;;;17.63;6.05;;;;;;;22.08;46.11;101542.84;5053635;28;20037;-83
2022/05/10 08:52:08;;;;;;;16.17;5.80;;;;;;;22.29;45.26;101544.78;5053290;28;20528;-83
2022/05/10 08:54:36;;;;;;;10.88;5.35;;;;;;;22.43;44.61;101549.50;5053185;28;20032;-83
2022/05/10 08:57:17;;;;;;;12.55;5.25;;;;;;;22.51;45.07;101536.22;5037215;28;20404;-83
2022/05/10 08:59:55;;;;;;;9.82;5.60;;;;;;;22.59;44.46;101533.72;5053264;28;20033;-83
2022/05/10 09:02:39;;;;;;;8.67;5.80;;;;;;;22.71;44.33;101538.13;5053558;28;20036;-83
2022/05/10 09:05:20;;;;;;;12.02;5.60;;;;;;;22.98;44.22;101528.63;5054107;28;20037;-83
2022/05/10 09:07:46;;;;;;;13.52;5.80;;;;;;;23.09;43.05;101528.28;5053845;28;20036;-83
2022/05/10 09:10:19;;;;;;;15.43;5.83;;;;;;;23.27;43.08;101520.50;5052734;28;20048;-83
2022/05/10 09:12:58;;;;;;;9.60;5.68;;;;;;;23.42;43.10;101530.66;5054047;28;20028;-83
2022/05/10 09:15:25;;;;;;;14.95;6.22;;;;;;;23.64;42.49;101525.50;5054275;28;20076;-83
2022/05/10 09:17:52;;;;;;;11.13;5.72;;;;;;;23.79;42.46;101521.78;5052408;28;20048;-83
2022/05/10 09:20:18;;;;;;;9.90;6.20;;;;;;;23.81;41.33;101525.13;5036324;28;20115;-84
2022/05/10 09:23:24;;;;;;;11.35;5.47;;;;;;;23.87;41.38;101533.41;5052194;28;20497;-83
2022/05/10 09:25:55;;;;;;;8.90;6.33;;;;;;;23.60;41.36;101516.09;5054209;28;20028;-83
2022/05/10 09:28:34;;;;;;;11.15;6.35;;;;;;;23.63;42.12;101517.50;5035932;28;20021;-83
2022/05/10 09:37:14;;;;;;;6.82;6.13;;;;;;;24.04;41.66;101510.84;5053765;28;20110;-83
2022/05/10 09:39:46;;;;;;;9.17;6.93;;;;;;;23.87;41.67;101502.94;5052798;28;20422;-83
2022/05/10 09:42:26;;;;;;;11.27;6.20;;;;;;;23.95;42.36;101507.88;5052115;28;20132;-84
2022/05/10 09:45:02;;;;;;;10.13;5.75;;;;;;;24.10;41.88;101504.94;5052083;28;20087;-84
2022/05/10 09:47:28;;;;;;;14.20;6.65;;;;;;;24.18;42.12;101517.34;5053155;28;20029;-84
2022/05/10 09:50:15;;;;;;;12.50;6.35;;;;;;;24.05;41.36;101506.94;5051708;28;20041;-83
2022/05/10 09:52:41;;;;;;;16.00;6.00;;;;;;;24.04;41.61;101505.31;5052426;28;20024;-83
2022/05/10 09:55:15;;;;;;;17.38;7.10;;;;;;;24.22;40.79;101503.75;5053527;28;20025;-83
2022/05/10 09:57:46;;;;;;;13.18;6.05;;;;;;;24.37;41.26;101489.72;5053610;28;20075;-83
2022/05/10 10:00:16;;;;;;;13.10;6.53;;;;;;;24.32;40.35;101479.50;5035714;28;20037;-83
2022/05/10 10:02:43;;;;;;;10.45;6.00;;;;;;;24.51;40.68;101495.41;5052321;28;20037;-83
2022/05/10 10:05:25;;;;;;;7.57;5.80;;;;;;;24.57;40.29;101505.31;5051466;28;20029;-83
2022/05/10 10:07:56;;;;;;;13.95;5.75;;;;;;;24.59;40.21;101478.13;5052872;28;20351;-83
2022/05/10 10:10:35;;;;;;;14.13;6.28;;;;;;;24.89;39.57;101491.94;5051946;28;20025;-83
2022/05/10 10:13:37;;;;;;;16.43;5.77;;;;;;;24.95;39.41;101474.94;5052867;28;20033;-83
2022/05/10 10:16:14;;;;;;;16.75;5.18;;;;;;;24.97;38.57;101478.22;5052725;28;20029;-83
2022/05/10 10:18:45;;;;;;;12.93;5.45;;;;;;;25.06;38.40;101478.38;5051575;28;20049;-83
2022/05/10 10:21:16;;;;;;;16.85;5.97;;;;;;;25.23;37.70;101472.31;5051907;28;20116;-83
2022/05/10 10:23:50;;;;;;;17.63;5.10;;;;;;;25.62;37.18;101476.75;5053137;28;20105;-83
2022/05/10 10:26:21;;;;;;;15.40;5.23;;;;;;;25.61;36.08;101479.84;5053021;28;20465;-86
2022/05/10 10:28:58;;;;;;;20.95;5.72;;;;;;;25.43;36.72;101482.31;5051628;28;20112;-85
2022/05/10 10:31:36;;;;;;;13.10;4.28;;;;;;;25.37;35.68;101502.97;5051858;28;20041;-85
2022/05/10 10:34:10;;;;;;;12.77;5.00;;;;;;;25.14;36.34;101471.34;5052094;28;20449;-84
2022/05/10 10:36:51;;;;;;;14.95;5.43;;;;;;;24.99;37.25;101473.19;5051387;28;20033;-85
2022/05/10 10:39:35;;;;;;;16.20;5.57;;;;;;;25.14;36.41;101491.59;5053156;28;20078;-83
2022/05/10 10:42:13;;;;;;;18.83;6.03;;;;;;;25.21;36.50;101458.72;5052389;28;20096;-84
2022/05/10 10:44:43;;;;;;;16.30;5.25;;;;;;;25.67;35.95;101473.06;5051886;28;20033;-85
2022/05/10 10:47:27;;;;;;;16.02;5.53;;;;;;;25.78;35.18;101490.38;5051362;28;20086;-85
2022/05/10 10:49:57;;;;;;;13.05;5.30;;;;;;;25.65;35.89;101476.16;5051683;28;20465;-85
2022/05/10 10:52:29;;;;;;;15.07;5.53;;;;;;;25.80;35.71;101465.91;5051834;28;20041;-85
2022/05/10 10:54:57;;;;;;;13.10;5.53;;;;;;;26.24;35.29;101454.28;5051594;28;20473;-85
2022/05/10 10:57:28;;;;;;;17.77;5.60;;;;;;;26.32;34.97;101438.03;5052860;28;20029;-85
2022/05/10 11:00:08;;;;;;;16.10;5.65;;;;;;;25.95;35.33;101468.41;5052820;28;20029;-85
2022/05/10 11:03:18;;;;;;;14.68;5.63;;;;;;;25.58;36.20;101449.88;5055163;28;20033;-84
2022/05/10 11:06:13;;;;;;;16.40;6.00;;;;;;;25.78;35.80;101451.47;5024250;28;20116;-84
2022/05/10 11:09:03;;;;;;;14.23;6.03;;;;;;;25.87;35.54;101425.47;5055077;28;20469;-84
2022/05/10 11:11:41;;;;;;;24.92;6.25;;;;;;;25.63;36.27;101431.19;5055448;28;20529;-84
2022/05/10 11:14:47;;;;;;;22.95;5.70;;;;;;;25.71;35.75;101436.03;5056472;28;20044;-84
2022/05/10 11:17:25;;;;;;;20.42;6.53;;;;;;;25.38;35.81;101436.03;5025968;28;20045;-85
2022/05/10 11:19:59;;;;;;;22.73;5.90;;;;;;;25.29;36.84;101432.25;5055288;28;20025;-87
2022/05/10 11:22:55;;;;;;;21.08;7.10;;;;;;;25.83;35.69;101426.41;5054111;28;20044;-92
2022/05/10 11:26:09;;;;;;;17.30;5.63;;;;;;;25.78;35.75;101430.09;5054500;28;20033;-83
2022/05/10 11:29:06;;;;;;;25.70;6.20;;;;;;;26.31;34.98;101416.91;5036907;28;20032;-83
2022/05/10 11:31:43;;;;;;;17.88;5.63;;;;;;;26.92;34.03;101431.53;5055278;28;20068;-83
2022/05/10 11:34:12;;;;;;;17.97;6.17;;;;;;;27.60;33.41;101410.16;5054692;28;20017;-83
2022/05/10 11:36:40;;;;;;;20.10;5.68;;;;;;;27.57;33.18;101404.41;5055560;28;20043;-83
2022/05/10 11:39:17;;;;;;;18.60;5.50;;;;;;;27.44;33.68;101404.13;5054218;28;20111;-83
2022/05/10 11:42:01;;;;;;;10.95;5.38;;;;;;;27.24;33.34;101410.16;5053908;28;20044;-83
2022/05/10 11:45:05;;;;;;;13.02;5.70;;;;;;;26.78;33.83;101410.13;5054425;28;20028;-84
2022/05/10 11:47:56;;;;;;;15.37;5.30;;;;;;;26.52;33.94;101395.88;5053932;28;20129;-84